createdAt,value
2019-03-26T00:00:49.432Z,68.55
2019-03-26T00:01:52.853Z,68.73
2019-03-26T00:02:56.817Z,68.58
2019-03-26T00:04:05.679Z,68.55
2019-03-26T00:05:05.976Z,68.41
2019-03-26T00:06:09.479Z,68.32
2019-03-26T00:07:14.188Z,68.33
2019-03-26T00:08:17.598Z,68.25
2019-03-26T00:09:21.047Z,68.34
2019-03-26T00:10:24.583Z,68.38
2019-03-26T00:11:28.006Z,68.30
2019-03-26T00:12:31.614Z,68.36
2019-03-26T00:13:35.039Z,68.40
2019-03-26T00:14:38.509Z,68.34
2019-03-26T00:15:41.920Z,68.44
2019-03-26T00:16:45.338Z,68.54
2019-03-26T00:17:48.753Z,68.61
2019-03-26T00:18:52.199Z,68.91
2019-03-26T00:19:55.621Z,69.05
2019-03-26T00:20:59.187Z,68.95
2019-03-26T00:22:02.604Z,68.88
2019-03-26T00:23:06.182Z,68.82
2019-03-26T00:24:09.690Z,68.87
2019-03-26T00:25:13.268Z,68.62
2019-03-26T00:26:16.688Z,68.70
2019-03-26T00:27:20.182Z,68.80
2019-03-26T00:28:23.603Z,68.83
2019-03-26T00:29:27.109Z,68.70
2019-03-26T00:30:30.537Z,68.69
2019-03-26T00:31:33.961Z,68.54
2019-03-26T00:32:37.379Z,68.33
2019-03-26T00:33:40.874Z,68.24
2019-03-26T00:34:44.330Z,68.24
2019-03-26T00:35:47.839Z,68.17
2019-03-26T00:36:51.260Z,68.07
2019-03-26T00:37:54.712Z,68.25
2019-03-26T00:38:58.135Z,68.20
2019-03-26T00:40:01.594Z,68.09
2019-03-26T00:41:05.158Z,67.96
2019-03-26T00:42:08.648Z,68.03
2019-03-26T00:43:12.090Z,68.14
2019-03-26T00:44:15.595Z,68.34
2019-03-26T00:45:19.101Z,68.32
2019-03-26T00:46:22.514Z,68.16
2019-03-26T00:47:25.926Z,68.14
2019-03-26T00:48:29.357Z,68.12
2019-03-26T00:49:32.781Z,68.16
2019-03-26T00:50:36.290Z,68.30
2019-03-26T00:51:39.726Z,68.30
2019-03-26T00:52:43.153Z,68.15
2019-03-26T00:53:46.578Z,68.16
2019-03-26T00:54:50.011Z,68.09
2019-03-26T00:55:53.620Z,68.24
2019-03-26T00:56:57.044Z,68.17
2019-03-26T00:58:01.823Z,68.17
2019-03-26T00:59:05.394Z,68.06
2019-03-26T01:00:09.757Z,68.11
2019-03-26T01:01:13.199Z,68.28
2019-03-26T01:02:16.654Z,68.33
2019-03-26T01:03:20.146Z,68.36
2019-03-26T01:04:32.754Z,68.48
2019-03-26T01:05:28.705Z,68.53
2019-03-26T01:06:32.155Z,68.57
2019-03-26T01:07:35.651Z,68.53
2019-03-26T01:08:39.082Z,68.49
2019-03-26T01:09:42.509Z,68.36
2019-03-26T01:10:46.008Z,68.29
2019-03-26T01:11:49.512Z,68.37
2019-03-26T01:12:52.928Z,68.45
2019-03-26T01:13:56.353Z,68.69
2019-03-26T01:14:59.857Z,69.01
2019-03-26T01:16:03.347Z,69.09
2019-03-26T01:17:06.793Z,69.03
2019-03-26T01:18:10.356Z,69.04
2019-03-26T01:19:13.843Z,68.95
2019-03-26T01:20:17.268Z,68.86
2019-03-26T01:21:20.694Z,68.82
2019-03-26T01:22:24.153Z,68.81
2019-03-26T01:23:27.646Z,68.83
2019-03-26T01:24:31.072Z,68.69
2019-03-26T01:25:34.566Z,68.67
2019-03-26T01:26:38.151Z,68.62
2019-03-26T01:27:41.642Z,68.56
2019-03-26T01:28:45.098Z,68.54
2019-03-26T01:29:48.497Z,68.57
2019-03-26T01:30:51.918Z,68.59
2019-03-26T01:31:55.349Z,68.61
2019-03-26T01:32:58.927Z,68.61
2019-03-26T01:34:02.357Z,68.65
2019-03-26T01:35:07.294Z,68.79
2019-03-26T01:36:10.721Z,68.86
2019-03-26T01:37:14.164Z,68.92
2019-03-26T01:38:17.592Z,69.11
2019-03-26T01:39:21.020Z,69.14
2019-03-26T01:40:24.513Z,69.20
2019-03-26T01:41:27.942Z,69.10
2019-03-26T01:42:31.488Z,69.03
2019-03-26T01:43:34.929Z,68.96
2019-03-26T01:44:38.348Z,68.98
2019-03-26T01:45:41.777Z,69.02
2019-03-26T01:46:45.211Z,69.04
2019-03-26T01:47:48.645Z,69.16
2019-03-26T01:48:52.088Z,69.28
2019-03-26T01:49:55.511Z,69.25
2019-03-26T01:50:59.002Z,69.29
2019-03-26T01:52:02.423Z,69.32
2019-03-26T01:53:06.017Z,69.30
2019-03-26T01:54:09.579Z,69.22
2019-03-26T01:55:13.082Z,69.26
2019-03-26T01:56:16.572Z,69.31
2019-03-26T01:57:20.006Z,69.29
2019-03-26T01:58:23.460Z,69.32
2019-03-26T01:59:26.923Z,69.44
2019-03-26T02:00:30.422Z,69.21
2019-03-26T02:01:33.845Z,69.17
2019-03-26T02:02:37.275Z,69.13
2019-03-26T02:03:40.725Z,69.11
2019-03-26T02:04:44.154Z,69.15
2019-03-26T02:05:47.569Z,69.50
2019-03-26T02:06:51.018Z,69.49
2019-03-26T02:07:54.532Z,69.39
2019-03-26T02:08:57.975Z,69.37
2019-03-26T02:10:01.479Z,69.59
2019-03-26T02:11:04.970Z,69.75
2019-03-26T02:12:08.393Z,69.78
2019-03-26T02:13:11.848Z,69.69
2019-03-26T02:14:15.296Z,69.61
2019-03-26T02:15:21.767Z,69.81
2019-03-26T02:16:25.201Z,69.93
2019-03-26T02:17:28.644Z,70.04
2019-03-26T02:18:32.089Z,69.90
2019-03-26T02:19:35.652Z,70.02
2019-03-26T02:20:39.086Z,70.12
2019-03-26T02:21:42.670Z,70.18
2019-03-26T02:22:46.098Z,70.10
2019-03-26T02:23:49.547Z,69.97
2019-03-26T02:24:52.979Z,69.81
2019-03-26T02:25:56.402Z,69.80
2019-03-26T02:27:00.000Z,69.81
2019-03-26T02:28:03.420Z,69.99
2019-03-26T02:29:06.876Z,70.04
2019-03-26T02:30:10.321Z,70.00
2019-03-26T02:31:13.750Z,70.00
2019-03-26T02:32:17.249Z,70.05
2019-03-26T02:33:20.742Z,70.19
2019-03-26T02:34:24.188Z,70.23
2019-03-26T02:35:27.610Z,70.10
2019-03-26T02:36:31.146Z,69.93
2019-03-26T02:37:34.574Z,69.85
2019-03-26T02:38:38.023Z,69.77
2019-03-26T02:39:41.445Z,69.71
2019-03-26T02:40:44.969Z,69.70
2019-03-26T02:41:48.440Z,69.72
2019-03-26T02:42:51.825Z,69.82
2019-03-26T02:43:55.257Z,69.78
2019-03-26T02:44:58.704Z,69.80
2019-03-26T02:46:02.283Z,69.76
2019-03-26T02:47:05.779Z,69.68
2019-03-26T02:48:09.278Z,69.58
2019-03-26T02:49:12.701Z,69.58
2019-03-26T02:50:16.286Z,69.65
2019-03-26T02:51:19.744Z,69.81
2019-03-26T02:52:23.252Z,69.95
2019-03-26T02:53:26.679Z,69.98
2019-03-26T02:54:30.116Z,69.98
2019-03-26T02:55:33.556Z,70.07
2019-03-26T02:56:36.994Z,70.02
2019-03-26T02:57:40.421Z,70.05
2019-03-26T02:58:43.855Z,70.19
2019-03-26T02:59:47.285Z,70.12
2019-03-26T03:00:50.734Z,70.05
2019-03-26T03:01:54.162Z,69.89
2019-03-26T03:02:57.697Z,69.76
2019-03-26T03:04:01.125Z,69.74
2019-03-26T03:05:04.892Z,69.73
2019-03-26T03:06:08.419Z,69.88
2019-03-26T03:07:11.850Z,69.85
2019-03-26T03:08:15.290Z,69.88
2019-03-26T03:09:18.786Z,69.81
2019-03-26T03:10:22.232Z,69.82
2019-03-26T03:11:25.676Z,69.81
2019-03-26T03:12:29.113Z,69.92
2019-03-26T03:13:32.549Z,70.02
2019-03-26T03:14:35.983Z,70.05
2019-03-26T03:15:39.434Z,69.97
2019-03-26T03:16:42.854Z,69.99
2019-03-26T03:17:46.427Z,69.97
2019-03-26T03:18:49.923Z,70.04
2019-03-26T03:19:53.357Z,69.92
2019-03-26T03:20:56.805Z,69.87
2019-03-26T03:22:00.236Z,69.83
2019-03-26T03:23:03.805Z,69.77
2019-03-26T03:24:07.224Z,69.84
2019-03-26T03:25:10.798Z,69.78
2019-03-26T03:26:14.255Z,69.66
2019-03-26T03:27:17.672Z,69.49
2019-03-26T03:28:21.171Z,69.46
2019-03-26T03:29:24.596Z,69.43
2019-03-26T03:30:28.093Z,69.42
2019-03-26T03:31:31.534Z,69.40
2019-03-26T03:32:35.205Z,69.31
2019-03-26T03:33:38.648Z,69.10
2019-03-26T03:34:42.073Z,69.19
2019-03-26T03:35:52.409Z,69.49
2019-03-26T03:36:51.367Z,69.57
2019-03-26T03:37:54.799Z,69.77
2019-03-26T03:38:58.220Z,69.82
2019-03-26T03:40:01.694Z,69.88
2019-03-26T03:41:05.401Z,70.10
2019-03-26T03:42:09.006Z,70.20
2019-03-26T03:43:12.533Z,70.07
2019-03-26T03:44:16.009Z,69.78
2019-03-26T03:45:27.584Z,69.56
2019-03-26T03:46:31.546Z,69.45
2019-03-26T03:47:35.125Z,69.44
2019-03-26T03:48:38.805Z,69.37
2019-03-26T03:49:42.294Z,69.29
2019-03-26T03:50:46.566Z,69.21
2019-03-26T03:51:51.179Z,69.30
2019-03-26T03:52:57.634Z,69.38
2019-03-26T03:54:01.495Z,69.37
2019-03-26T03:55:07.068Z,69.29
2019-03-26T03:56:11.479Z,69.25
2019-03-26T03:57:17.375Z,69.27
2019-03-26T03:58:24.162Z,69.25
2019-03-26T03:59:29.128Z,69.42
2019-03-26T04:00:37.371Z,69.48
2019-03-26T04:01:40.884Z,69.42
2019-03-26T04:02:44.313Z,69.32
2019-03-26T04:03:47.742Z,69.55
2019-03-26T04:04:51.199Z,69.53
2019-03-26T04:06:08.148Z,69.61
2019-03-26T04:06:59.870Z,69.79
2019-03-26T04:08:03.373Z,69.99
2019-03-26T04:09:06.908Z,70.10
2019-03-26T04:10:10.477Z,69.96
2019-03-26T04:11:13.968Z,69.56
2019-03-26T04:12:17.460Z,69.22
2019-03-26T04:13:20.935Z,69.21
2019-03-26T04:14:24.391Z,69.11
2019-03-26T04:15:27.900Z,69.07
2019-03-26T04:16:31.414Z,69.03
2019-03-26T04:17:34.851Z,68.97
2019-03-26T04:18:38.282Z,68.90
2019-03-26T04:19:41.709Z,68.81
2019-03-26T04:20:45.214Z,68.78
2019-03-26T04:21:48.659Z,68.99
2019-03-26T04:22:52.155Z,69.19
2019-03-26T04:23:55.721Z,69.49
2019-03-26T04:24:59.208Z,69.34
2019-03-26T04:26:02.658Z,69.24
2019-03-26T04:27:06.098Z,69.13
2019-03-26T04:28:09.601Z,69.02
2019-03-26T04:29:13.027Z,69.06
2019-03-26T04:30:19.509Z,69.15
2019-03-26T04:31:23.014Z,69.23
2019-03-26T04:32:26.472Z,69.23
2019-03-26T04:33:29.903Z,69.17
2019-03-26T04:34:33.335Z,69.15
2019-03-26T04:35:36.840Z,69.21
2019-03-26T04:36:40.300Z,69.25
2019-03-26T04:37:43.733Z,69.33
2019-03-26T04:38:47.243Z,69.30
2019-03-26T04:39:50.662Z,69.20
2019-03-26T04:40:54.151Z,69.21
2019-03-26T04:41:57.581Z,69.08
2019-03-26T04:43:01.020Z,69.14
2019-03-26T04:44:05.427Z,69.16
2019-03-26T04:45:09.096Z,69.10
2019-03-26T04:46:12.561Z,68.93
2019-03-26T04:47:16.035Z,69.01
2019-03-26T04:48:19.537Z,68.92
2019-03-26T04:49:23.062Z,69.04
2019-03-26T04:50:26.535Z,69.00
2019-03-26T04:51:29.966Z,68.99
2019-03-26T04:52:33.420Z,68.89
2019-03-26T04:53:36.863Z,68.98
2019-03-26T04:54:40.365Z,68.96
2019-03-26T04:55:43.795Z,68.93
2019-03-26T04:56:47.224Z,69.10
2019-03-26T04:57:50.746Z,69.04
2019-03-26T04:58:54.218Z,69.05
2019-03-26T04:59:57.644Z,69.13
2019-03-26T05:01:01.074Z,69.13
2019-03-26T05:02:04.586Z,69.04
2019-03-26T05:03:08.013Z,69.12
2019-03-26T05:04:11.439Z,69.11
2019-03-26T05:05:15.026Z,69.15
2019-03-26T05:06:18.514Z,69.15
2019-03-26T05:07:22.027Z,68.85
2019-03-26T05:08:25.465Z,69.02
2019-03-26T05:09:28.891Z,69.09
2019-03-26T05:10:32.318Z,69.25
2019-03-26T05:11:35.757Z,69.22
2019-03-26T05:12:39.197Z,69.10
2019-03-26T05:13:42.765Z,69.17
2019-03-26T05:14:46.188Z,69.04
2019-03-26T05:15:49.694Z,68.88
2019-03-26T05:16:53.118Z,68.81
2019-03-26T05:17:56.981Z,68.92
2019-03-26T05:19:00.385Z,69.08
2019-03-26T05:20:04.703Z,69.13
2019-03-26T05:21:08.186Z,68.94
2019-03-26T05:22:23.559Z,68.93
2019-03-26T05:23:16.802Z,68.94
2019-03-26T05:24:20.235Z,69.21
2019-03-26T05:25:23.661Z,69.29
2019-03-26T05:26:27.093Z,69.33
2019-03-26T05:27:30.547Z,69.33
2019-03-26T05:28:33.974Z,69.25
2019-03-26T05:29:37.402Z,69.01
2019-03-26T05:30:40.830Z,69.04
2019-03-26T05:31:44.274Z,69.08
2019-03-26T05:32:47.736Z,69.08
2019-03-26T05:33:51.254Z,69.09
2019-03-26T05:34:54.674Z,69.03
2019-03-26T05:35:58.105Z,68.99
2019-03-26T05:37:01.537Z,68.92
2019-03-26T05:38:04.976Z,68.95
2019-03-26T05:39:08.466Z,68.87
2019-03-26T05:40:12.143Z,68.73
2019-03-26T05:41:15.710Z,68.56
2019-03-26T05:42:19.221Z,68.50
2019-03-26T05:43:22.663Z,68.43
2019-03-26T05:44:26.100Z,68.34
2019-03-26T05:45:29.525Z,68.26
2019-03-26T05:46:32.956Z,68.25
2019-03-26T05:47:36.397Z,68.32
2019-03-26T05:48:39.831Z,68.40
2019-03-26T05:49:43.257Z,68.41
2019-03-26T05:50:46.688Z,68.37
2019-03-26T05:51:50.122Z,68.36
2019-03-26T05:52:53.573Z,68.65
2019-03-26T05:53:57.075Z,68.71
2019-03-26T05:55:00.538Z,68.68
2019-03-26T05:56:03.997Z,68.70
2019-03-26T05:57:07.437Z,68.80
2019-03-26T05:58:10.892Z,68.84
2019-03-26T05:59:14.323Z,68.76
2019-03-26T06:00:21.225Z,68.58
2019-03-26T06:01:24.670Z,68.45
2019-03-26T06:02:28.095Z,68.32
2019-03-26T06:03:31.547Z,68.11
2019-03-26T06:04:35.180Z,68.07
2019-03-26T06:05:38.610Z,68.30
2019-03-26T06:06:42.108Z,68.49
2019-03-26T06:07:45.604Z,68.51
2019-03-26T06:08:49.064Z,68.44
2019-03-26T06:09:52.483Z,68.41
2019-03-26T06:10:55.895Z,68.08
2019-03-26T06:11:59.503Z,68.06
2019-03-26T06:13:02.953Z,68.13
2019-03-26T06:14:06.423Z,68.28
2019-03-26T06:15:11.389Z,68.43
2019-03-26T06:16:14.812Z,68.22
2019-03-26T06:17:18.267Z,68.22
2019-03-26T06:18:21.718Z,68.29
2019-03-26T06:19:25.150Z,68.55
2019-03-26T06:20:28.585Z,68.43
2019-03-26T06:21:32.012Z,68.08
2019-03-26T06:22:35.982Z,68.38
2019-03-26T06:23:39.413Z,68.46
2019-03-26T06:24:42.846Z,68.30
2019-03-26T06:25:46.326Z,68.17
2019-03-26T06:26:49.773Z,68.04
2019-03-26T06:27:53.219Z,67.82
2019-03-26T06:28:56.654Z,67.76
2019-03-26T06:30:00.374Z,67.65
2019-03-26T06:31:03.872Z,67.77
2019-03-26T06:32:07.297Z,67.73
2019-03-26T06:33:10.824Z,67.68
2019-03-26T06:34:14.281Z,67.57
2019-03-26T06:35:17.723Z,67.53
2019-03-26T06:36:21.180Z,67.46
2019-03-26T06:37:24.604Z,67.43
2019-03-26T06:38:28.059Z,67.26
2019-03-26T06:39:31.487Z,67.21
2019-03-26T06:40:35.122Z,67.23
2019-03-26T06:41:38.621Z,67.29
2019-03-26T06:42:42.117Z,67.17
2019-03-26T06:43:45.560Z,67.08
2019-03-26T06:44:49.020Z,67.11
2019-03-26T06:45:52.524Z,67.24
2019-03-26T06:46:56.017Z,67.20
2019-03-26T06:47:59.512Z,66.98
2019-03-26T06:49:02.959Z,66.94
2019-03-26T06:50:08.736Z,66.81
2019-03-26T06:51:12.159Z,66.58
2019-03-26T06:52:15.611Z,66.61
2019-03-26T06:53:19.030Z,66.44
2019-03-26T06:54:22.497Z,66.54
2019-03-26T06:55:25.953Z,66.31
2019-03-26T06:56:29.442Z,66.30
2019-03-26T06:57:35.839Z,66.35
2019-03-26T06:58:38.086Z,66.64
2019-03-26T06:59:41.599Z,66.67
2019-03-26T07:00:45.171Z,66.78
2019-03-26T07:01:48.796Z,66.66
2019-03-26T07:02:52.232Z,66.75
2019-03-26T07:03:55.893Z,66.63
2019-03-26T07:04:59.354Z,66.69
2019-03-26T07:06:02.807Z,66.67
2019-03-26T07:07:06.340Z,66.70
2019-03-26T07:08:09.767Z,66.77
2019-03-26T07:09:13.199Z,66.74
2019-03-26T07:10:19.722Z,66.78
2019-03-26T07:11:23.205Z,66.92
2019-03-26T07:12:26.713Z,67.66
2019-03-26T07:13:30.230Z,67.56
2019-03-26T07:14:33.668Z,67.40
2019-03-26T07:15:37.113Z,67.17
2019-03-26T07:16:40.635Z,67.13
2019-03-26T07:17:44.058Z,67.10
2019-03-26T07:18:47.500Z,67.00
2019-03-26T07:19:50.996Z,66.94
2019-03-26T07:20:54.585Z,66.88
2019-03-26T07:21:58.174Z,66.81
2019-03-26T07:23:01.618Z,66.81
2019-03-26T07:24:05.181Z,66.98
2019-03-26T07:25:10.117Z,66.96
2019-03-26T07:26:13.740Z,66.89
2019-03-26T07:27:17.170Z,66.84
2019-03-26T07:28:20.685Z,66.91
2019-03-26T07:29:24.123Z,66.82
2019-03-26T07:30:42.486Z,66.68
2019-03-26T07:31:46.007Z,66.72
2019-03-26T07:32:49.433Z,66.98
2019-03-26T07:33:52.873Z,66.97
2019-03-26T07:34:56.305Z,67.10
2019-03-26T07:35:59.747Z,67.20
2019-03-26T07:37:03.194Z,67.17
2019-03-26T07:38:06.765Z,67.18
2019-03-26T07:39:10.263Z,67.01
2019-03-26T07:40:13.837Z,66.98
2019-03-26T07:41:17.268Z,66.85
2019-03-26T07:42:20.713Z,66.98
2019-03-26T07:43:24.146Z,66.58
2019-03-26T07:44:27.575Z,66.62
2019-03-26T07:45:31.149Z,66.43
2019-03-26T07:46:34.645Z,66.54
2019-03-26T07:47:38.173Z,66.39
2019-03-26T07:48:41.590Z,66.14
2019-03-26T07:49:45.089Z,66.20
2019-03-26T07:50:48.517Z,66.21
2019-03-26T07:51:51.936Z,66.41
2019-03-26T07:52:55.449Z,66.30
2019-03-26T07:53:58.904Z,66.04
2019-03-26T07:55:02.355Z,65.81
2019-03-26T07:56:05.834Z,65.68
2019-03-26T07:57:09.281Z,65.41
2019-03-26T07:58:12.754Z,65.51
2019-03-26T07:59:16.248Z,65.86
2019-03-26T08:00:22.724Z,66.00
2019-03-26T08:01:26.214Z,65.86
2019-03-26T08:02:29.658Z,65.76
2019-03-26T08:03:33.114Z,65.52
2019-03-26T08:04:36.536Z,65.19
2019-03-26T08:05:39.963Z,65.02
2019-03-26T08:06:43.390Z,64.91
2019-03-26T08:07:57.681Z,64.91
2019-03-26T08:08:51.985Z,64.97
2019-03-26T08:09:55.409Z,64.98
2019-03-26T08:10:58.831Z,64.99
2019-03-26T08:12:02.255Z,65.05
2019-03-26T08:13:05.777Z,65.06
2019-03-26T08:14:09.289Z,64.99
2019-03-26T08:15:12.779Z,64.94
2019-03-26T08:16:16.200Z,64.94
2019-03-26T08:17:19.644Z,64.89
2019-03-26T08:18:23.054Z,64.84
2019-03-26T08:19:26.503Z,64.55
2019-03-26T08:20:29.930Z,64.59
2019-03-26T08:21:33.353Z,64.85
2019-03-26T08:22:36.775Z,64.42
2019-03-26T08:23:40.204Z,64.23
2019-03-26T08:24:43.650Z,64.15
2019-03-26T08:25:47.220Z,64.31
2019-03-26T08:26:52.144Z,63.68
2019-03-26T08:27:55.649Z,63.65
2019-03-26T08:29:01.005Z,63.98
2019-03-26T08:30:06.008Z,63.88
2019-03-26T08:31:09.630Z,63.99
2019-03-26T08:32:13.004Z,64.04
2019-03-26T08:33:16.444Z,63.71
2019-03-26T08:34:19.875Z,63.73
2019-03-26T08:35:23.321Z,63.46
2019-03-26T08:36:26.822Z,63.45
2019-03-26T08:37:30.246Z,63.28
2019-03-26T08:38:33.760Z,63.19
2019-03-26T08:39:37.202Z,63.10
2019-03-26T08:40:40.789Z,63.17
2019-03-26T08:41:44.215Z,62.86
2019-03-26T08:42:47.642Z,62.57
2019-03-26T08:43:51.054Z,62.66
2019-03-26T08:44:54.503Z,62.63
2019-03-26T08:45:57.920Z,62.44
2019-03-26T08:47:01.400Z,62.36
2019-03-26T08:48:05.222Z,62.44
2019-03-26T08:49:08.686Z,62.22
2019-03-26T08:50:13.166Z,62.26
2019-03-26T08:51:16.572Z,62.06
2019-03-26T08:52:20.082Z,61.81
2019-03-26T08:53:23.513Z,61.81
2019-03-26T08:54:26.942Z,61.75
2019-03-26T08:55:30.375Z,61.56
2019-03-26T08:56:33.828Z,61.05
2019-03-26T08:57:37.330Z,60.85
2019-03-26T08:58:40.763Z,60.78
2019-03-26T08:59:44.189Z,60.53
2019-03-26T09:00:47.641Z,60.87
2019-03-26T09:01:51.064Z,60.97
2019-03-26T09:02:54.555Z,60.89
2019-03-26T09:03:57.976Z,60.89
2019-03-26T09:05:01.413Z,60.91
2019-03-26T09:06:05.083Z,61.03
2019-03-26T09:07:10.960Z,61.08
2019-03-26T09:08:24.899Z,60.96
2019-03-26T09:09:18.886Z,61.17
2019-03-26T09:10:22.475Z,61.21
2019-03-26T09:11:26.057Z,61.13
2019-03-26T09:12:29.546Z,61.33
2019-03-26T09:13:32.974Z,61.21
2019-03-26T09:14:36.479Z,61.27
2019-03-26T09:15:39.906Z,61.08
2019-03-26T09:16:43.336Z,60.57
2019-03-26T09:17:46.836Z,60.26
2019-03-26T09:18:50.266Z,59.99
2019-03-26T09:19:53.713Z,59.70
2019-03-26T09:20:57.414Z,59.22
2019-03-26T09:22:00.838Z,59.28
2019-03-26T09:23:04.339Z,59.43
2019-03-26T09:24:07.769Z,59.19
2019-03-26T09:25:11.626Z,59.07
2019-03-26T09:26:15.065Z,58.74
2019-03-26T09:27:18.483Z,58.53
2019-03-26T09:28:21.917Z,58.33
2019-03-26T09:29:25.345Z,58.26
2019-03-26T09:30:28.856Z,57.58
2019-03-26T09:31:32.284Z,57.65
2019-03-26T09:32:35.708Z,57.45
2019-03-26T09:33:39.204Z,57.63
2019-03-26T09:34:42.723Z,57.34
2019-03-26T09:35:46.166Z,57.35
2019-03-26T09:36:49.664Z,57.13
2019-03-26T09:37:53.090Z,57.26
2019-03-26T09:38:56.596Z,57.47
2019-03-26T09:40:00.013Z,57.52
2019-03-26T09:41:03.461Z,57.51
2019-03-26T09:42:06.948Z,56.39
2019-03-26T09:43:10.376Z,56.49
2019-03-26T09:44:13.801Z,56.58
2019-03-26T09:45:17.228Z,56.52
2019-03-26T09:46:20.745Z,56.00
2019-03-26T09:47:24.172Z,56.23
2019-03-26T09:48:27.594Z,56.18
2019-03-26T09:49:31.022Z,56.26
2019-03-26T09:50:36.309Z,56.14
2019-03-26T09:51:39.765Z,56.10
2019-03-26T09:52:43.253Z,55.65
2019-03-26T09:53:46.685Z,56.11
2019-03-26T09:54:50.140Z,55.78
2019-03-26T09:55:53.657Z,55.92
2019-03-26T09:56:57.088Z,56.06
2019-03-26T09:58:00.527Z,56.15
2019-03-26T09:59:04.016Z,56.24
2019-03-26T10:00:12.166Z,56.22
2019-03-26T10:01:15.617Z,55.76
2019-03-26T10:02:19.035Z,56.09
2019-03-26T10:03:22.544Z,56.08
2019-03-26T10:04:25.973Z,55.85
2019-03-26T10:05:29.403Z,56.04
2019-03-26T10:06:32.913Z,55.55
2019-03-26T10:07:36.418Z,55.12
2019-03-26T10:08:51.940Z,54.49
2019-03-26T10:09:44.999Z,54.37
2019-03-26T10:10:48.433Z,54.20
2019-03-26T10:11:51.956Z,53.71
2019-03-26T10:12:55.390Z,54.01
2019-03-26T10:13:58.822Z,54.62
2019-03-26T10:15:02.264Z,54.61
2019-03-26T10:16:05.702Z,54.80
2019-03-26T10:17:09.134Z,54.36
2019-03-26T10:18:12.618Z,53.70
2019-03-26T10:19:17.129Z,53.03
2019-03-26T10:20:20.597Z,52.28
2019-03-26T10:21:24.112Z,52.02
2019-03-26T10:22:27.601Z,51.82
2019-03-26T10:23:31.035Z,51.54
2019-03-26T10:24:34.598Z,51.09
2019-03-26T10:25:38.025Z,50.96
2019-03-26T10:26:41.465Z,50.71
2019-03-26T10:27:44.894Z,49.65
2019-03-26T10:28:48.381Z,49.94
2019-03-26T10:29:51.815Z,48.75
2019-03-26T10:30:55.232Z,48.72
2019-03-26T10:31:58.750Z,48.55
2019-03-26T10:33:02.416Z,48.78
2019-03-26T10:34:05.844Z,48.76
2019-03-26T10:35:09.605Z,48.55
2019-03-26T10:36:13.116Z,48.78
2019-03-26T10:37:16.606Z,49.62
2019-03-26T10:38:20.035Z,50.39
2019-03-26T10:39:23.528Z,50.57
2019-03-26T10:40:35.056Z,50.28
2019-03-26T10:41:38.503Z,49.42
2019-03-26T10:42:42.016Z,48.76
2019-03-26T10:43:45.494Z,47.63
2019-03-26T10:44:48.910Z,48.17
2019-03-26T10:45:52.332Z,47.54
2019-03-26T10:46:55.843Z,47.02
2019-03-26T10:47:59.344Z,47.05
2019-03-26T10:49:02.765Z,47.21
2019-03-26T10:50:07.228Z,47.22
2019-03-26T10:51:10.658Z,47.68
2019-03-26T10:52:14.171Z,48.49
2019-03-26T10:53:17.599Z,48.90
2019-03-26T10:54:21.031Z,48.74
2019-03-26T10:55:24.563Z,48.78
2019-03-26T10:56:28.031Z,49.05
2019-03-26T10:57:31.455Z,49.23
2019-03-26T10:58:34.882Z,49.37
2019-03-26T10:59:38.305Z,48.33
2019-03-26T11:00:41.867Z,48.33
2019-03-26T11:01:45.329Z,48.55
2019-03-26T11:02:48.819Z,48.28
2019-03-26T11:03:52.237Z,48.17
2019-03-26T11:04:55.678Z,48.18
2019-03-26T11:05:59.112Z,47.71
2019-03-26T11:07:02.562Z,47.39
2019-03-26T11:08:06.063Z,46.78
2019-03-26T11:09:23.023Z,46.78
2019-03-26T11:10:14.795Z,46.36
2019-03-26T11:11:18.218Z,46.38
2019-03-26T11:12:21.671Z,46.44
2019-03-26T11:13:25.162Z,46.10
2019-03-26T11:14:31.692Z,46.60
2019-03-26T11:15:34.041Z,45.90
2019-03-26T11:16:37.541Z,44.88
2019-03-26T11:17:41.053Z,44.94
2019-03-26T11:18:44.495Z,43.71
2019-03-26T11:19:47.903Z,43.88
2019-03-26T11:21:01.946Z,43.96
2019-03-26T11:21:56.512Z,44.24
2019-03-26T11:23:00.095Z,44.24
2019-03-26T11:24:03.658Z,43.96
2019-03-26T11:25:08.597Z,43.96
2019-03-26T11:26:13.739Z,43.70
2019-03-26T11:27:17.259Z,43.70
2019-03-26T11:28:20.673Z,42.98
2019-03-26T11:29:24.183Z,42.54
2019-03-26T11:30:27.587Z,42.54
2019-03-26T11:31:31.011Z,43.00
2019-03-26T11:32:34.532Z,42.33
2019-03-26T11:33:37.966Z,42.80
2019-03-26T11:34:41.393Z,42.48
2019-03-26T11:35:44.879Z,42.50
2019-03-26T11:36:48.448Z,42.72
2019-03-26T11:37:51.963Z,42.85
2019-03-26T11:38:55.707Z,43.20
2019-03-26T11:39:59.208Z,43.10
2019-03-26T11:41:02.642Z,43.27
2019-03-26T11:42:06.221Z,42.93
2019-03-26T11:43:09.645Z,43.31
2019-03-26T11:44:13.145Z,43.57
2019-03-26T11:45:18.006Z,43.20
2019-03-26T11:46:21.592Z,43.77
2019-03-26T11:47:25.106Z,43.90
2019-03-26T11:48:28.531Z,43.90
2019-03-26T11:49:31.959Z,43.90
2019-03-26T11:50:35.457Z,44.08
2019-03-26T11:51:38.884Z,43.98
2019-03-26T11:52:42.413Z,44.18
2019-03-26T11:53:45.920Z,44.23
2019-03-26T11:54:49.352Z,44.70
2019-03-26T11:55:52.784Z,45.38
2019-03-26T11:56:56.285Z,45.38
2019-03-26T11:57:59.743Z,45.75
2019-03-26T11:59:03.169Z,45.92
2019-03-26T12:00:09.595Z,46.23
2019-03-26T12:01:13.020Z,45.98
2019-03-26T12:02:16.557Z,45.73
2019-03-26T12:03:19.960Z,45.79
2019-03-26T12:04:23.381Z,45.45
2019-03-26T12:05:26.808Z,45.61
2019-03-26T12:06:30.234Z,45.61
2019-03-26T12:07:33.704Z,45.64
2019-03-26T12:08:37.125Z,45.46
2019-03-26T12:09:46.339Z,45.30
2019-03-26T12:10:45.764Z,45.46
2019-03-26T12:11:49.268Z,45.13
2019-03-26T12:12:52.718Z,44.53
2019-03-26T12:13:56.272Z,44.45
2019-03-26T12:14:59.697Z,44.29
2019-03-26T12:16:03.202Z,44.41
2019-03-26T12:17:06.688Z,44.24
2019-03-26T12:18:10.223Z,43.88
2019-03-26T12:19:13.664Z,43.63
2019-03-26T12:20:17.325Z,43.21
2019-03-26T12:21:20.747Z,43.70
2019-03-26T12:22:24.178Z,43.11
2019-03-26T12:23:27.616Z,43.05
2019-03-26T12:24:31.116Z,43.18
2019-03-26T12:25:34.596Z,43.29
2019-03-26T12:26:38.043Z,42.96
2019-03-26T12:27:41.475Z,43.08
2019-03-26T12:28:44.945Z,43.08
2019-03-26T12:29:48.359Z,43.12
2019-03-26T12:30:51.791Z,43.16
2019-03-26T12:31:55.289Z,43.28
2019-03-26T12:32:58.808Z,43.28
2019-03-26T12:34:03.266Z,42.69
2019-03-26T12:35:08.136Z,41.62
2019-03-26T12:36:11.639Z,41.62
2019-03-26T12:37:15.061Z,41.87
2019-03-26T12:38:19.559Z,42.26
2019-03-26T12:39:22.984Z,42.26
2019-03-26T12:40:26.535Z,42.07
2019-03-26T12:41:29.960Z,42.26
2019-03-26T12:42:33.385Z,43.77
2019-03-26T12:43:36.835Z,43.77
2019-03-26T12:44:40.351Z,43.94
2019-03-26T12:45:43.911Z,44.09
2019-03-26T12:46:47.335Z,44.00
2019-03-26T12:47:50.764Z,43.84
2019-03-26T12:48:54.225Z,44.14
2019-03-26T12:49:57.647Z,43.97
2019-03-26T12:51:01.141Z,44.10
2019-03-26T12:52:04.633Z,44.10
2019-03-26T12:53:08.127Z,44.25
2019-03-26T12:54:11.639Z,44.55
2019-03-26T12:55:15.088Z,44.55
2019-03-26T12:56:18.555Z,44.77
2019-03-26T12:57:21.982Z,44.56
2019-03-26T12:58:31.822Z,44.41
2019-03-26T12:59:30.651Z,43.61
2019-03-26T13:00:34.332Z,43.61
2019-03-26T13:01:37.837Z,43.64
2019-03-26T13:02:41.336Z,43.64
2019-03-26T13:03:44.780Z,43.75
2019-03-26T13:04:48.209Z,43.76
2019-03-26T13:05:51.767Z,43.76
2019-03-26T13:06:55.192Z,43.37
2019-03-26T13:07:58.613Z,43.37
2019-03-26T13:09:02.035Z,43.27
2019-03-26T13:10:14.173Z,43.19
2019-03-26T13:11:16.913Z,42.86
2019-03-26T13:12:18.914Z,42.40
2019-03-26T13:13:22.404Z,42.55
2019-03-26T13:14:25.840Z,42.64
2019-03-26T13:15:29.410Z,42.84
2019-03-26T13:16:32.924Z,42.69
2019-03-26T13:17:36.351Z,42.69
2019-03-26T13:18:39.786Z,42.95
2019-03-26T13:19:43.212Z,43.18
2019-03-26T13:20:47.842Z,43.50
2019-03-26T13:21:51.455Z,43.60
2019-03-26T13:22:54.947Z,43.41
2019-03-26T13:23:58.369Z,43.02
2019-03-26T13:25:01.802Z,43.03
2019-03-26T13:26:05.321Z,42.88
2019-03-26T13:27:08.847Z,41.81
2019-03-26T13:28:12.355Z,40.20
2019-03-26T13:29:15.789Z,38.01
2019-03-26T13:30:19.964Z,37.71
2019-03-26T13:31:23.434Z,37.70
2019-03-26T13:32:26.869Z,37.62
2019-03-26T13:33:30.376Z,36.54
2019-03-26T13:34:33.877Z,34.56
2019-03-26T13:35:37.379Z,33.99
2019-03-26T13:36:40.844Z,33.44
2019-03-26T13:37:44.258Z,32.70
2019-03-26T13:38:47.761Z,32.53
2019-03-26T13:39:51.196Z,33.83